createdAt,value
2019-02-23T00:03:05.836Z,0.90
2019-02-23T00:05:34.349Z,0.96
2019-02-23T00:08:02.963Z,0.91
2019-02-23T00:10:31.478Z,0.88
2019-02-23T00:13:03.305Z,0.80
2019-02-23T00:15:32.193Z,0.80
2019-02-23T00:18:00.759Z,0.76
2019-02-23T00:20:29.223Z,0.68
2019-02-23T00:22:57.781Z,0.71
2019-02-23T00:25:30.761Z,0.68
2019-02-23T00:27:59.296Z,0.65
2019-02-23T00:30:27.797Z,0.62
2019-02-23T00:32:56.367Z,0.67
2019-02-23T00:35:24.995Z,0.65
2019-02-23T00:37:53.479Z,0.65
2019-02-23T00:40:25.671Z,0.64
2019-02-23T00:42:54.245Z,0.57
2019-02-23T00:45:23.109Z,0.53
2019-02-23T00:47:53.275Z,0.61
2019-02-23T00:50:23.345Z,0.61
2019-02-23T00:52:51.815Z,0.52
2019-02-23T00:55:20.363Z,0.52
2019-02-23T00:57:49.193Z,0.47
2019-02-23T01:00:19.417Z,0.46
2019-02-23T01:02:47.893Z,0.46
2019-02-23T01:05:16.520Z,0.42
2019-02-23T01:07:45.275Z,0.42
2019-02-23T01:10:14.043Z,0.42
2019-02-23T01:12:42.557Z,0.52
2019-02-23T01:15:11.695Z,0.52
2019-02-23T01:17:41.085Z,0.41
2019-02-23T01:20:10.652Z,0.52
2019-02-23T01:22:39.165Z,0.47
2019-02-23T01:25:09.315Z,0.47
2019-02-23T01:27:39.417Z,0.46
2019-02-23T01:30:11.817Z,0.48
2019-02-23T01:32:42.630Z,0.46
2019-02-23T01:35:11.417Z,0.43
2019-02-23T01:37:39.958Z,0.35
2019-02-23T01:40:10.200Z,0.31
2019-02-23T01:42:38.755Z,0.27
2019-02-23T01:45:08.560Z,0.31
2019-02-23T01:47:36.998Z,0.28
2019-02-23T01:50:07.168Z,0.27
2019-02-23T01:52:35.652Z,0.35
2019-02-23T01:55:05.127Z,0.43
2019-02-23T01:57:35.770Z,0.54
2019-02-23T02:00:07.160Z,0.51
2019-02-23T02:02:35.717Z,-0.15
2019-02-23T02:05:04.878Z,0.51
2019-02-23T02:07:33.410Z,0.44
2019-02-23T02:10:02.106Z,0.48
2019-02-23T02:12:30.999Z,0.45
2019-02-23T02:14:59.454Z,0.45
2019-02-23T02:17:29.583Z,0.47
2019-02-23T02:20:10.618Z,0.36
2019-02-23T02:22:34.225Z,0.48
2019-02-23T02:25:02.791Z,0.44
2019-02-23T02:27:31.248Z,0.51
2019-02-23T02:29:59.712Z,0.57
2019-02-23T02:32:31.313Z,0.50
2019-02-23T02:34:59.777Z,0.39
2019-02-23T02:37:28.247Z,0.45
2019-02-23T02:39:59.062Z,0.38
2019-02-23T02:42:27.549Z,0.44
2019-02-23T02:44:57.646Z,0.48
2019-02-23T02:47:26.152Z,0.43
2019-02-23T02:49:54.618Z,0.43
2019-02-23T02:52:23.529Z,0.37
2019-02-23T02:54:51.982Z,0.47
2019-02-23T02:57:20.450Z,0.47
2019-02-23T02:59:48.906Z,0.51
2019-02-23T03:02:17.377Z,0.52
2019-02-23T03:04:45.845Z,0.51
2019-02-23T03:07:14.337Z,0.53
2019-02-23T03:09:42.937Z,0.44
2019-02-23T03:12:11.359Z,0.38
2019-02-23T03:14:39.919Z,0.32
2019-02-23T03:17:08.390Z,0.28
2019-02-23T03:19:38.419Z,0.31
2019-02-23T03:22:06.911Z,0.27
2019-02-23T03:24:35.383Z,0.17
2019-02-23T03:27:04.763Z,0.19
2019-02-23T03:29:33.253Z,-0.38
2019-02-23T03:32:03.402Z,0.21
2019-02-23T03:34:31.839Z,0.18
2019-02-23T03:37:00.627Z,0.16
2019-02-23T03:39:29.107Z,0.19
2019-02-23T03:42:00.638Z,0.16
2019-02-23T03:44:29.117Z,0.19
2019-02-23T03:46:57.609Z,0.20
2019-02-23T03:49:27.701Z,0.13
2019-02-23T03:51:56.232Z,0.10
2019-02-23T03:54:26.383Z,0.07
2019-02-23T03:56:54.869Z,0.06
2019-02-23T03:59:23.429Z,0.07
2019-02-23T04:01:53.453Z,0.15
2019-02-23T04:04:21.937Z,0.10
2019-02-23T04:06:53.346Z,0.11
2019-02-23T04:09:21.879Z,0.10
2019-02-23T04:11:50.833Z,0.08
2019-02-23T04:14:21.273Z,0.12
2019-02-23T04:16:52.390Z,0.06
2019-02-23T04:19:26.409Z,-0.54
2019-02-23T04:21:57.353Z,-0.02
2019-02-23T04:24:30.088Z,0.02
2019-02-23T04:26:58.697Z,0.05
2019-02-23T04:29:27.174Z,0.06
2019-02-23T04:31:56.531Z,0.09
2019-02-23T04:34:25.784Z,-0.01
2019-02-23T04:36:54.271Z,0.07
2019-02-23T04:39:23.619Z,0.09
2019-02-23T04:41:52.078Z,0.04
2019-02-23T04:44:20.577Z,-0.05
2019-02-23T04:46:49.043Z,-0.22
2019-02-23T04:49:19.173Z,-0.33
2019-02-23T04:51:47.683Z,-0.41
2019-02-23T04:54:17.458Z,-0.52
2019-02-23T04:56:45.928Z,-0.43
2019-02-23T04:59:14.431Z,-0.36
2019-02-23T05:01:45.559Z,-0.39
2019-02-23T05:04:14.025Z,-0.32
2019-02-23T05:06:42.561Z,-0.29
2019-02-23T05:09:13.763Z,-0.29
2019-02-23T05:11:42.245Z,-0.29
2019-02-23T05:14:10.747Z,-0.22
2019-02-23T05:16:39.207Z,-0.28
2019-02-23T05:19:07.970Z,-0.32
2019-02-23T05:21:36.471Z,-0.33
2019-02-23T05:24:05.099Z,-0.30
2019-02-23T05:26:33.574Z,-0.29
2019-02-23T05:29:02.074Z,-0.33
2019-02-23T05:31:30.556Z,-0.40
2019-02-23T05:33:59.577Z,-0.30
2019-02-23T05:36:28.379Z,-0.31
2019-02-23T05:38:56.926Z,-0.37
2019-02-23T05:41:25.525Z,-0.42
2019-02-23T05:43:54.112Z,-0.48
2019-02-23T05:46:22.618Z,-0.56
2019-02-23T05:48:51.164Z,-0.57
2019-02-23T05:51:19.662Z,-0.49
2019-02-23T05:53:50.988Z,-0.63
2019-02-23T05:56:19.537Z,-0.65
2019-02-23T05:58:48.078Z,-0.73
2019-02-23T06:01:16.610Z,-0.75
2019-02-23T06:03:46.882Z,-0.75
2019-02-23T06:06:15.413Z,-0.83
2019-02-23T06:08:44.712Z,-0.85
2019-02-23T06:11:16.012Z,-0.82
2019-02-23T06:13:44.543Z,-0.80
2019-02-23T06:16:13.026Z,-0.71
2019-02-23T06:18:41.534Z,-0.67
2019-02-23T06:21:10.094Z,-0.66
2019-02-23T06:23:38.598Z,-0.76
2019-02-23T06:26:07.121Z,-0.68
2019-02-23T06:28:35.604Z,-0.80
2019-02-23T06:31:04.232Z,-0.68
2019-02-23T06:33:32.801Z,-0.66
2019-02-23T06:36:01.291Z,-0.71
2019-02-23T06:38:29.792Z,-0.77
2019-02-23T06:40:58.420Z,-0.81
2019-02-23T06:43:26.931Z,-0.81
2019-02-23T06:45:55.432Z,-0.82
2019-02-23T06:48:24.020Z,-0.78
2019-02-23T06:50:52.559Z,-0.75
2019-02-23T06:53:21.066Z,-0.72
2019-02-23T06:55:49.861Z,-0.66
2019-02-23T06:58:18.365Z,-0.61
2019-02-23T07:00:46.965Z,-0.53
2019-02-23T07:03:15.595Z,-0.44
2019-02-23T07:05:44.283Z,-0.45
2019-02-23T07:08:12.836Z,-0.55
2019-02-23T07:10:41.489Z,-0.40
2019-02-23T07:13:10.007Z,-0.27
2019-02-23T07:15:39.091Z,-0.15
2019-02-23T07:18:07.722Z,-0.30
2019-02-23T07:20:43.708Z,-0.14
2019-02-23T07:23:09.632Z,-0.14
2019-02-23T07:25:38.916Z,0.04
2019-02-23T07:28:07.371Z,-0.02
2019-02-23T07:30:35.937Z,0.10
2019-02-23T07:33:07.351Z,0.16
2019-02-23T07:35:35.850Z,0.24
2019-02-23T07:38:04.399Z,0.47
2019-02-23T07:40:33.663Z,0.78
2019-02-23T07:43:02.186Z,0.94
2019-02-23T07:45:30.685Z,1.30
2019-02-23T07:47:59.669Z,1.68
2019-02-23T07:50:28.300Z,2.52
2019-02-23T07:52:59.329Z,2.55
2019-02-23T07:55:30.969Z,2.35
2019-02-23T07:57:59.543Z,3.61
2019-02-23T08:00:28.058Z,4.02
2019-02-23T08:02:59.553Z,4.59
2019-02-23T08:05:28.143Z,4.73
2019-02-23T08:07:57.841Z,5.10
2019-02-23T08:10:26.808Z,4.97
2019-02-23T08:12:57.343Z,4.99
2019-02-23T08:15:26.793Z,4.73
2019-02-23T08:17:58.375Z,4.53
2019-02-23T08:20:27.316Z,4.82
2019-02-23T08:22:55.823Z,4.98
2019-02-23T08:25:27.568Z,5.17
2019-02-23T08:27:56.128Z,5.38
2019-02-23T08:30:24.833Z,5.27
2019-02-23T08:32:53.389Z,5.30
2019-02-23T08:35:22.128Z,4.97
2019-02-23T08:37:50.627Z,5.16
2019-02-23T08:40:19.368Z,6.22
2019-02-23T08:42:47.842Z,6.40
2019-02-23T08:45:16.594Z,6.45
2019-02-23T08:47:45.107Z,6.41
2019-02-23T08:50:15.338Z,6.51
2019-02-23T08:52:48.997Z,6.44
2019-02-23T08:55:15.134Z,6.75
2019-02-23T08:57:43.626Z,6.72
2019-02-23T09:03:25.130Z,6.89
2019-02-23T09:05:53.633Z,7.36
2019-02-23T09:08:22.190Z,6.89
2019-02-23T09:10:50.689Z,5.87
2019-02-23T09:13:19.229Z,5.93
2019-02-23T09:15:47.727Z,5.95
2019-02-23T09:18:16.192Z,7.00
2019-02-23T09:20:44.676Z,7.40
2019-02-23T09:23:13.216Z,7.81
2019-02-23T09:25:42.034Z,8.11
2019-02-23T09:28:10.500Z,7.50
2019-02-23T09:30:39.049Z,8.25
2019-02-23T09:33:07.519Z,8.38
2019-02-23T09:35:36.404Z,8.12
2019-02-23T09:38:04.998Z,8.81
2019-02-23T09:40:34.010Z,9.85
2019-02-23T09:43:02.483Z,8.81
2019-02-23T09:45:32.594Z,8.75
2019-02-23T09:48:01.126Z,8.24
2019-02-23T09:50:30.917Z,8.66
2019-02-23T09:53:10.844Z,9.10
2019-02-23T09:55:29.643Z,8.21
2019-02-23T09:57:58.108Z,8.32
2019-02-23T10:00:26.579Z,8.18
2019-02-23T10:02:55.121Z,8.61
2019-02-23T10:05:24.828Z,8.44
2019-02-23T10:07:53.332Z,7.97
2019-02-23T10:10:22.014Z,9.06
2019-02-23T10:12:50.467Z,8.76
2019-02-23T10:15:20.795Z,8.34
2019-02-23T10:17:49.241Z,7.15
2019-02-23T10:20:17.899Z,7.63
2019-02-23T10:22:46.381Z,6.81
2019-02-23T10:25:15.021Z,7.06
2019-02-23T10:27:43.497Z,7.01
2019-02-23T10:30:16.772Z,7.50
2019-02-23T10:32:48.256Z,6.77
2019-02-23T10:35:16.821Z,7.30
2019-02-23T10:37:45.352Z,6.70
2019-02-23T10:40:14.003Z,6.48
2019-02-23T10:42:42.482Z,6.65
2019-02-23T10:45:12.319Z,6.17
2019-02-23T10:47:40.883Z,6.44
2019-02-23T10:50:11.342Z,6.51
2019-02-23T10:52:41.535Z,6.53
2019-02-23T10:55:12.376Z,6.26
2019-02-23T10:57:40.997Z,6.00
2019-02-23T11:00:17.082Z,6.15
2019-02-23T11:02:45.704Z,6.19
2019-02-23T11:05:14.824Z,6.24
2019-02-23T11:07:43.469Z,6.34
2019-02-23T11:10:12.491Z,6.06
2019-02-23T11:12:41.037Z,6.32
2019-02-23T11:15:14.290Z,6.48
2019-02-23T11:17:42.870Z,6.23
2019-02-23T11:20:11.899Z,6.57
2019-02-23T11:22:40.447Z,6.95
2019-02-23T11:25:12.685Z,6.77
2019-02-23T11:27:41.225Z,6.37
2019-02-23T11:30:12.807Z,6.86
2019-02-23T11:32:41.296Z,6.54
2019-02-23T11:35:12.975Z,6.80
2019-02-23T11:37:41.466Z,7.06
2019-02-23T11:40:13.997Z,7.62
2019-02-23T11:42:42.534Z,7.63
2019-02-23T11:45:11.816Z,7.65
2019-02-23T11:47:40.355Z,7.26
2019-02-23T11:50:13.707Z,6.96
2019-02-23T11:52:42.250Z,7.37
2019-02-23T11:55:10.923Z,7.35
2019-02-23T11:57:39.431Z,7.12
2019-02-23T12:00:31.600Z,7.15
2019-02-23T12:03:00.184Z,6.98
2019-02-23T12:05:28.724Z,7.09
2019-02-23T12:07:57.247Z,7.18
2019-02-23T12:10:28.972Z,7.14
2019-02-23T12:13:00.058Z,7.17
2019-02-23T12:15:31.617Z,7.12
2019-02-23T12:18:02.252Z,6.99
2019-02-23T12:20:30.810Z,7.54
2019-02-23T12:22:59.266Z,7.61
2019-02-23T12:25:27.767Z,7.33
2019-02-23T12:27:56.253Z,7.48
2019-02-23T12:30:24.895Z,7.56
2019-02-23T12:32:53.462Z,7.67
2019-02-23T12:35:22.116Z,7.67
2019-02-23T12:37:50.598Z,7.65
2019-02-23T12:40:22.047Z,7.29
2019-02-23T12:45:44.372Z,7.32
2019-02-23T12:48:11.410Z,7.58
2019-02-23T12:50:39.883Z,7.44
2019-02-23T12:53:08.354Z,7.41
2019-02-23T12:55:36.842Z,7.12
2019-02-23T12:58:05.386Z,7.26
2019-02-23T13:00:38.004Z,7.40
2019-02-23T13:03:16.290Z,7.41
2019-02-23T13:05:44.808Z,7.46
2019-02-23T13:08:37.217Z,7.46
2019-02-23T13:11:05.816Z,7.51
2019-02-23T13:13:40.169Z,7.62
2019-02-23T13:16:20.490Z,8.00
2019-02-23T13:19:06.741Z,7.46
2019-02-23T13:21:41.203Z,7.22
2019-02-23T13:24:28.362Z,7.22
2019-02-23T13:27:24.515Z,7.34
2019-02-23T13:30:15.683Z,7.55
2019-02-23T13:33:07.257Z,7.66
2019-02-23T13:35:57.119Z,7.60
2019-02-23T13:38:50.604Z,7.65
2019-02-23T13:41:45.971Z,7.61
2019-02-23T13:44:37.123Z,7.84
2019-02-23T13:47:25.141Z,8.67
2019-02-23T13:50:35.425Z,8.77
2019-02-23T13:53:09.630Z,8.31
2019-02-23T13:55:44.034Z,8.31
2019-02-23T14:01:49.374Z,8.11
2019-02-23T14:04:23.540Z,7.79
2019-02-23T14:07:10.838Z,8.28
2019-02-23T14:09:50.901Z,8.02
2019-02-23T14:12:25.355Z,7.72
2019-02-23T14:15:05.844Z,8.04
2019-02-23T14:18:07.970Z,7.88
2019-02-23T14:21:03.308Z,7.68
2019-02-23T14:23:43.444Z,7.95
2019-02-23T14:26:23.194Z,8.00
2019-02-23T14:29:03.475Z,7.81
2019-02-23T14:31:40.736Z,7.51
2019-02-23T14:34:15.105Z,7.15
2019-02-23T14:37:03.179Z,7.73
2019-02-23T14:39:46.479Z,7.94
2019-02-23T14:42:42.164Z,7.70
2019-02-23T14:45:44.461Z,7.64
2019-02-23T14:48:33.956Z,7.59
2019-02-23T14:51:05.466Z,7.55
2019-02-23T14:53:48.842Z,7.32
2019-02-23T14:56:23.324Z,7.35
2019-02-23T14:58:57.482Z,7.51
2019-02-23T15:01:34.711Z,7.48
2019-02-23T15:04:09.191Z,7.43
2019-02-23T15:07:10.638Z,7.51
2019-02-23T15:10:07.286Z,7.45
2019-02-23T15:12:59.119Z,7.29
2019-02-23T15:15:33.509Z,7.31
2019-02-23T15:18:21.756Z,7.21
2019-02-23T15:21:09.794Z,7.04
2019-02-23T15:24:16.173Z,6.57
2019-02-23T15:27:04.151Z,7.01
2019-02-23T15:29:44.559Z,7.02
2019-02-23T15:32:32.812Z,7.12
2019-02-23T15:35:14.755Z,6.95
2019-02-23T15:37:58.120Z,6.73
2019-02-23T15:40:34.980Z,6.71
2019-02-23T15:43:13.144Z,6.62
2019-02-23T15:46:07.347Z,6.63
2019-02-23T15:48:56.371Z,6.61
2019-02-23T15:51:24.996Z,6.66
2019-02-23T15:53:54.034Z,6.65
2019-02-23T15:56:25.684Z,6.53
2019-02-23T15:58:54.160Z,6.47
2019-02-23T16:01:22.803Z,6.43
2019-02-23T16:03:51.331Z,6.32
2019-02-23T16:06:22.471Z,6.39
2019-02-23T16:08:50.948Z,6.36
2019-02-23T16:11:23.984Z,6.22
2019-02-23T16:13:57.003Z,6.17
2019-02-23T16:16:25.653Z,6.10
2019-02-23T16:18:59.794Z,6.08
2019-02-23T16:21:28.303Z,6.03
2019-02-23T16:23:56.838Z,5.99
2019-02-23T16:26:25.489Z,5.93
2019-02-23T16:28:55.849Z,5.89
2019-02-23T16:31:24.368Z,5.78
2019-02-23T16:33:52.955Z,5.74
2019-02-23T16:36:21.408Z,5.70
2019-02-23T16:38:49.890Z,5.68
2019-02-23T16:41:18.480Z,5.66
2019-02-23T16:43:46.967Z,5.61
2019-02-23T16:46:15.456Z,5.56
2019-02-23T16:48:48.499Z,5.53
2019-02-23T16:51:16.998Z,5.46
2019-02-23T16:53:48.732Z,5.42
2019-02-23T16:56:15.796Z,5.37
2019-02-23T16:58:50.823Z,5.31
2019-02-23T17:01:19.297Z,5.28
2019-02-23T17:03:47.907Z,5.21
2019-02-23T17:06:16.475Z,5.15
2019-02-23T17:08:49.445Z,5.13
2019-02-23T17:11:19.224Z,5.04
2019-02-23T17:13:47.788Z,5.03
2019-02-23T17:16:16.795Z,4.95
2019-02-23T17:18:48.521Z,4.82
2019-02-23T17:21:18.591Z,4.80
2019-02-23T17:23:47.122Z,4.77
2019-02-23T17:26:15.583Z,4.77
2019-02-23T17:28:44.146Z,4.70
2019-02-23T17:31:12.708Z,4.67
2019-02-23T17:33:42.834Z,4.64
2019-02-23T17:36:15.604Z,4.59
2019-02-23T17:38:47.177Z,4.59
2019-02-23T17:41:15.672Z,4.54
2019-02-23T17:43:44.162Z,4.52
2019-02-23T17:46:12.627Z,4.40
2019-02-23T17:48:41.523Z,4.41
2019-02-23T17:51:10.025Z,4.38
2019-02-23T17:53:38.509Z,4.35
2019-02-23T17:56:12.199Z,4.29
2019-02-23T17:58:37.196Z,4.28
2019-02-23T18:01:05.765Z,4.26
2019-02-23T18:03:34.239Z,4.20
2019-02-23T18:06:02.793Z,4.15
2019-02-23T18:08:33.096Z,4.16
2019-02-23T18:11:01.685Z,4.14
2019-02-23T18:13:30.181Z,4.14
2019-02-23T18:15:58.847Z,4.07
2019-02-23T18:18:27.327Z,4.05
2019-02-23T18:20:55.815Z,4.03
2019-02-23T18:23:24.288Z,4.01
2019-02-23T18:25:52.867Z,3.93
2019-02-23T18:28:21.376Z,3.88
2019-02-23T18:30:49.852Z,3.88
2019-02-23T18:33:18.349Z,3.81
2019-02-23T18:35:46.930Z,3.75
2019-02-23T18:38:15.473Z,3.78
2019-02-23T18:40:48.377Z,3.72
2019-02-23T18:43:14.248Z,3.73
2019-02-23T18:45:47.623Z,3.66
2019-02-23T18:48:16.457Z,3.67
2019-02-23T18:50:45.031Z,3.62
2019-02-23T18:53:13.510Z,3.64
2019-02-23T18:55:42.011Z,3.51
2019-02-23T18:58:12.109Z,3.51
2019-02-23T19:00:42.608Z,3.48
2019-02-23T19:03:11.242Z,3.45
2019-02-23T19:05:39.725Z,3.48
2019-02-23T19:08:13.768Z,3.41
2019-02-23T19:10:46.509Z,3.36
2019-02-23T19:13:15.025Z,3.28
2019-02-23T19:15:43.502Z,3.22
2019-02-23T19:18:12.082Z,3.18
2019-02-23T19:20:40.619Z,3.11
2019-02-23T19:23:09.208Z,3.05
2019-02-23T19:25:37.688Z,3.01
2019-02-23T19:28:06.175Z,3.03
2019-02-23T19:30:39.652Z,3.00
2019-02-23T19:33:14.642Z,2.96
2019-02-23T19:35:42.848Z,2.91
2019-02-23T19:38:11.360Z,2.90
2019-02-23T19:40:42.989Z,2.81
2019-02-23T19:43:11.583Z,2.80
2019-02-23T19:45:40.130Z,2.73
2019-02-23T19:48:08.694Z,2.67
2019-02-23T19:50:46.554Z,2.63
2019-02-23T19:53:15.056Z,2.61
2019-02-23T19:55:46.872Z,2.49
2019-02-23T19:58:15.603Z,2.46
2019-02-23T20:00:44.503Z,2.47
2019-02-23T20:03:13.278Z,2.36
2019-02-23T20:05:41.909Z,2.37
2019-02-23T20:08:10.446Z,2.35
2019-02-23T20:10:38.938Z,2.38
2019-02-23T20:13:07.393Z,2.34
2019-02-23T20:15:35.888Z,2.28
2019-02-23T20:18:05.911Z,2.17
2019-02-23T20:20:34.665Z,2.13
2019-02-23T20:23:03.250Z,2.16
2019-02-23T20:25:31.733Z,2.15
2019-02-23T20:28:05.221Z,2.14
2019-02-23T20:30:33.783Z,2.12
2019-02-23T20:33:02.264Z,2.13
2019-02-23T20:35:32.109Z,2.02
2019-02-23T20:38:03.730Z,2.05
2019-02-23T20:40:32.335Z,2.05
2019-02-23T20:43:03.570Z,2.03
2019-02-23T20:45:32.097Z,2.07
2019-02-23T20:48:00.573Z,2.08
2019-02-23T20:50:29.066Z,1.97
2019-02-23T20:53:00.342Z,2.00
2019-02-23T20:55:28.862Z,2.00
2019-02-23T20:57:57.335Z,2.03
2019-02-23T21:00:26.816Z,2.04
2019-02-23T21:02:55.416Z,1.95
2019-02-23T21:05:24.223Z,1.95
2019-02-23T21:07:54.353Z,1.84
2019-02-23T21:10:22.886Z,1.85
2019-02-23T21:12:53.471Z,1.82
2019-02-23T21:15:21.747Z,1.81
2019-02-23T21:17:50.305Z,1.74
2019-02-23T21:20:18.865Z,1.71
2019-02-23T21:22:50.175Z,1.64
2019-02-23T21:25:18.738Z,1.55
2019-02-23T21:27:47.252Z,1.56
2019-02-23T21:30:15.895Z,1.53
2019-02-23T21:32:44.854Z,1.51
2019-02-23T21:35:13.478Z,1.46
2019-02-23T21:37:41.979Z,1.44
2019-02-23T21:40:12.196Z,1.44
2019-02-23T21:42:40.841Z,1.33
2019-02-23T21:45:14.335Z,1.38
2019-02-23T21:47:42.905Z,1.41
2019-02-23T21:50:11.525Z,1.39
2019-02-23T21:52:40.110Z,1.45
2019-02-23T21:55:09.253Z,1.38
2019-02-23T21:57:37.810Z,1.40
2019-02-23T22:00:08.558Z,1.36
2019-02-23T22:02:37.072Z,1.34
2019-02-23T22:05:12.424Z,1.29
2019-02-23T22:07:36.380Z,1.26
2019-02-23T22:10:07.554Z,1.22
2019-02-23T22:12:36.043Z,1.17
2019-02-23T22:15:06.485Z,1.20
2019-02-23T22:17:35.002Z,1.20
2019-02-23T22:20:04.297Z,1.17
2019-02-23T22:22:35.615Z,1.14
2019-02-23T22:25:04.789Z,1.10
2019-02-23T22:27:33.249Z,1.11
2019-02-23T22:30:01.957Z,1.13
2019-02-23T22:32:30.440Z,1.06
2019-02-23T22:34:58.901Z,0.98
2019-02-23T22:37:27.524Z,0.90
2019-02-23T22:39:56.222Z,0.80
2019-02-23T22:42:24.687Z,0.92
2019-02-23T22:44:55.645Z,0.85
2019-02-23T22:47:24.117Z,0.94
2019-02-23T22:49:52.606Z,0.93
2019-02-23T22:52:23.772Z,0.96
2019-02-23T22:54:52.392Z,0.90
2019-02-23T22:57:22.364Z,0.89
2019-02-23T22:59:52.362Z,0.88
2019-02-23T23:02:21.038Z,0.85
2019-02-23T23:04:49.489Z,0.75
2019-02-23T23:07:17.962Z,0.78
2019-02-23T23:09:46.450Z,0.68
2019-02-23T23:12:17.036Z,0.72
2019-02-23T23:14:45.525Z,0.58
2019-02-23T23:17:14.081Z,0.55
2019-02-23T23:19:42.522Z,0.60
2019-02-23T23:22:10.988Z,0.55
2019-02-23T23:24:39.464Z,0.42
2019-02-23T23:27:07.947Z,0.58
2019-02-23T23:29:36.414Z,0.58
2019-02-23T23:32:04.947Z,0.63
2019-02-23T23:34:36.086Z,0.59
2019-02-23T23:37:04.564Z,0.63
2019-02-23T23:39:33.020Z,0.65
2019-02-23T23:42:03.036Z,0.60
2019-02-23T23:44:34.752Z,0.61
2019-02-23T23:47:03.224Z,0.59
2019-02-23T23:49:31.666Z,0.55
2019-02-23T23:52:00.146Z,0.47
2019-02-23T23:54:28.609Z,0.46
2019-02-23T23:56:57.134Z,0.53
2019-02-23T23:59:25.611Z,0.55
